PWSweather.com
Personal Weather Stations
Station Observations
DAVIS2016
WorthingGB

WorthingGB

Lat: 50.8130266, Lon: -0.3832443000000012

Elevation: 34.8

Station Type: davis vantage vue 6250

High Low Average
Temperature 64.7°F18.2°C 60.0°F15.6°C 62.6°F17.0°C
Dew Point 60.1°F15.6°C 56.4°F13.6°C 58.4°F14.7°C
Winds 12.0 mph 19.3 kmh 3.0 mph 4.8 kmh 8.0 mph SSE12.9 kmh SSE
Wind Gusts 24.0 mph38.6 kmh 9.0 mph14.5 kmh 15.0 mph24.1 kmh
Humidity 91% 81% 86%
Pressure 29.76 in1007.8 mb 29.60 in1002.4 mb -
Precipitation 0.06 in1.5 mm - -
Hour Temp Dew Point Humidity Winds Wind Gusts Pressure Precip Precip Rate Daily Precip Total
12:00 AM 64.3°F17.9°C 58.7°F14.8°C 82% 7.0 mph SE11.3 kmh SE 14.0 mph22.5 kmh 29.66 in1004.4 mb 0.00 in0.0 mm 0.00 in0.0 mm 0.00 in0.0 mm
12:15 AM 64.1°F17.8°C 58.5°F14.7°C 82% 8.0 mph SE12.9 kmh SE 13.0 mph20.9 kmh 29.65 in1004.1 mb 0.00 in0.0 mm 0.00 in0.0 mm 0.00 in0.0 mm
12:30 AM 64.1°F17.8°C 58.5°F14.7°C 82% 9.0 mph SSE14.5 kmh SSE 16.0 mph25.7 kmh 29.66 in1004.4 mb 0.00 in0.0 mm 0.00 in0.0 mm 0.00 in0.0 mm
12:45 AM 63.9°F17.7°C 58.6°F14.8°C 83% 8.0 mph SSE12.9 kmh SSE 16.0 mph25.7 kmh 29.65 in1004.1 mb 0.00 in0.0 mm 0.00 in0.0 mm 0.00 in0.0 mm
01:00 AM 63.8°F17.7°C 58.5°F14.7°C 83% 8.0 mph SSE12.9 kmh SSE 15.0 mph24.1 kmh 29.65 in1004.1 mb 0.00 in0.0 mm 0.00 in0.0 mm 0.00 in0.0 mm
01:10 AM 63.8°F17.7°C 58.9°F14.9°C 84% 8.0 mph SSE12.9 kmh SSE 14.0 mph22.5 kmh 29.65 in1004.1 mb 0.00 in0.0 mm 0.00 in0.0 mm 0.00 in0.0 mm
01:15 AM 63.7°F17.6°C 58.8°F14.9°C 84% 8.0 mph SSE12.9 kmh SSE 14.0 mph22.5 kmh 29.65 in1004.1 mb 0.00 in0.0 mm 0.00 in0.0 mm 0.00 in0.0 mm
01:20 AM 63.7°F17.6°C 58.8°F14.9°C 84% 8.0 mph SSE12.9 kmh SSE 14.0 mph22.5 kmh 29.64 in1003.7 mb 0.00 in0.0 mm 0.00 in0.0 mm 0.00 in0.0 mm
01:30 AM 63.6°F17.6°C 58.7°F14.8°C 84% 8.0 mph SE12.9 kmh SE 14.0 mph22.5 kmh 29.64 in1003.7 mb 0.00 in0.0 mm 0.00 in0.0 mm 0.00 in0.0 mm
01:40 AM 63.6°F17.6°C 58.7°F14.8°C 84% 7.0 mph SSE11.3 kmh SSE 14.0 mph22.5 kmh 29.64 in1003.7 mb 0.00 in0.0 mm 0.00 in0.0 mm 0.00 in0.0 mm
01:45 AM 63.5°F17.5°C 58.6°F14.8°C 84% 6.0 mph SSE9.7 kmh SSE 11.0 mph17.7 kmh 29.64 in1003.7 mb 0.00 in0.0 mm 0.00 in0.0 mm 0.00 in0.0 mm
01:50 AM 63.5°F17.5°C 58.9°F14.9°C 85% 7.0 mph SSE11.3 kmh SSE 13.0 mph20.9 kmh 29.64 in1003.7 mb 0.00 in0.0 mm 0.00 in0.0 mm 0.00 in0.0 mm
02:00 AM 63.5°F17.5°C 58.6°F14.8°C 84% 7.0 mph SSE11.3 kmh SSE 13.0 mph20.9 kmh 29.63 in1003.4 mb 0.00 in0.0 mm 0.00 in0.0 mm 0.00 in0.0 mm
02:10 AM 63.4°F17.4°C 58.5°F14.7°C 84% 7.0 mph SSE11.3 kmh SSE 13.0 mph20.9 kmh 29.62 in1003.0 mb 0.00 in0.0 mm 0.00 in0.0 mm 0.00 in0.0 mm
02:15 AM 63.3°F17.4°C 58.0°F14.4°C 83% 7.0 mph SE11.3 kmh SE 13.0 mph20.9 kmh 29.61 in1002.7 mb 0.00 in0.0 mm 0.00 in0.0 mm 0.00 in0.0 mm
02:20 AM 63.3°F17.4°C 58.0°F14.4°C 83% 6.0 mph SE9.7 kmh SE 13.0 mph20.9 kmh 29.61 in1002.7 mb 0.00 in0.0 mm 0.00 in0.0 mm 0.00 in0.0 mm
02:30 AM 63.2°F17.3°C 58.3°F14.6°C 84% 5.0 mph SE8.0 kmh SE 13.0 mph20.9 kmh 29.60 in1002.4 mb 0.00 in0.0 mm 0.00 in0.0 mm 0.00 in0.0 mm
02:40 AM 63.0°F17.2°C 58.1°F14.5°C 84% 6.0 mph SE9.7 kmh SE 13.0 mph20.9 kmh 29.62 in1003.0 mb 0.00 in0.0 mm 0.00 in0.0 mm 0.00 in0.0 mm
02:45 AM 62.7°F17.1°C 57.5°F14.2°C 83% 6.0 mph S9.7 kmh S 15.0 mph24.1 kmh 29.62 in1003.0 mb 0.00 in0.0 mm 0.00 in0.0 mm 0.00 in0.0 mm
02:50 AM 62.7°F17.1°C 57.1°F13.9°C 82% 7.0 mph SSE11.3 kmh SSE 15.0 mph24.1 kmh 29.62 in1003.0 mb 0.00 in0.0 mm 0.00 in0.0 mm 0.00 in0.0 mm
03:00 AM 62.8°F17.1°C 56.9°F13.8°C 81% 7.0 mph SSE11.3 kmh SSE 15.0 mph24.1 kmh 29.62 in1003.0 mb 0.00 in0.0 mm 0.00 in0.0 mm 0.00 in0.0 mm
03:10 AM 62.8°F17.1°C 57.2°F14.0°C 82% 7.0 mph SE11.3 kmh SE 15.0 mph24.1 kmh 29.62 in1003.0 mb 0.00 in0.0 mm 0.00 in0.0 mm 0.00 in0.0 mm
03:15 AM 62.5°F16.9°C 57.3°F14.1°C 83% 6.0 mph SE9.7 kmh SE 13.0 mph20.9 kmh 29.62 in1003.0 mb 0.00 in0.0 mm 0.00 in0.0 mm 0.00 in0.0 mm
03:20 AM 62.5°F16.9°C 57.6°F14.2°C 84% 6.0 mph SE9.7 kmh SE 15.0 mph24.1 kmh 29.62 in1003.0 mb 0.00 in0.0 mm 0.00 in0.0 mm 0.00 in0.0 mm
03:30 AM 62.2°F16.8°C 57.6°F14.2°C 85% 6.0 mph SE9.7 kmh SE 12.0 mph19.3 kmh 29.61 in1002.7 mb 0.00 in0.0 mm 0.00 in0.0 mm 0.00 in0.0 mm
03:40 AM 62.0°F16.7°C 57.4°F14.1°C 85% 7.0 mph SSE11.3 kmh SSE 14.0 mph22.5 kmh 29.62 in1003.0 mb 0.00 in0.0 mm 0.00 in0.0 mm 0.00 in0.0 mm
03:45 AM 61.9°F16.6°C 57.3°F14.1°C 85% 7.0 mph SE11.3 kmh SE 17.0 mph27.4 kmh 29.61 in1002.7 mb 0.00 in0.0 mm 0.00 in0.0 mm 0.00 in0.0 mm
03:50 AM 62.0°F16.7°C 56.8°F13.8°C 83% 8.0 mph SE12.9 kmh SE 17.0 mph27.4 kmh 29.61 in1002.7 mb 0.00 in0.0 mm 0.00 in0.0 mm 0.00 in0.0 mm
04:00 AM 62.1°F16.7°C 56.9°F13.8°C 83% 8.0 mph SSE12.9 kmh SSE 17.0 mph27.4 kmh 29.61 in1002.7 mb 0.00 in0.0 mm 0.00 in0.0 mm 0.00 in0.0 mm
04:10 AM 62.1°F16.7°C 56.9°F13.8°C 83% 8.0 mph SSE12.9 kmh SSE 16.0 mph25.7 kmh 29.61 in1002.7 mb 0.00 in0.0 mm 0.00 in0.0 mm 0.00 in0.0 mm
04:15 AM 62.1°F16.7°C 56.9°F13.8°C 83% 8.0 mph SE12.9 kmh SE 16.0 mph25.7 kmh 29.61 in1002.7 mb 0.00 in0.0 mm 0.00 in0.0 mm 0.00 in0.0 mm
04:20 AM 62.1°F16.7°C 56.9°F13.8°C 83% 9.0 mph SSE14.5 kmh SSE 16.0 mph25.7 kmh 29.61 in1002.7 mb 0.00 in0.0 mm 0.00 in0.0 mm 0.00 in0.0 mm
04:30 AM 62.1°F16.7°C 57.5°F14.2°C 85% 7.0 mph SE11.3 kmh SE 16.0 mph25.7 kmh 29.61 in1002.7 mb 0.00 in0.0 mm 0.00 in0.0 mm 0.00 in0.0 mm
04:40 AM 61.8°F16.6°C 57.2°F14.0°C 85% 9.0 mph SE14.5 kmh SE 16.0 mph25.7 kmh 29.61 in1002.7 mb 0.00 in0.0 mm 0.00 in0.0 mm 0.00 in0.0 mm
04:45 AM 61.6°F16.4°C 57.0°F13.9°C 85% 9.0 mph SE14.5 kmh SE 16.0 mph25.7 kmh 29.61 in1002.7 mb 0.00 in0.0 mm 0.00 in0.0 mm 0.00 in0.0 mm
04:50 AM 61.6°F16.4°C 57.0°F13.9°C 85% 9.0 mph SE14.5 kmh SE 16.0 mph25.7 kmh 29.62 in1003.0 mb 0.00 in0.0 mm 0.00 in0.0 mm 0.00 in0.0 mm
05:00 AM 61.5°F16.4°C 56.9°F13.8°C 85% 9.0 mph SE14.5 kmh SE 16.0 mph25.7 kmh 29.62 in1003.0 mb 0.00 in0.0 mm 0.00 in0.0 mm 0.00 in0.0 mm
05:10 AM 61.5°F16.4°C 57.3°F14.1°C 86% 8.0 mph SE12.9 kmh SE 16.0 mph25.7 kmh 29.62 in1003.0 mb 0.00 in0.0 mm 0.00 in0.0 mm 0.00 in0.0 mm
05:15 AM 61.5°F16.4°C 57.3°F14.1°C 86% 8.0 mph SE12.9 kmh SE 16.0 mph25.7 kmh 29.62 in1003.0 mb 0.00 in0.0 mm 0.00 in0.0 mm 0.00 in0.0 mm
05:20 AM 61.5°F16.4°C 57.3°F14.1°C 86% 9.0 mph SSE14.5 kmh SSE 16.0 mph25.7 kmh 29.61 in1002.7 mb 0.00 in0.0 mm 0.00 in0.0 mm 0.00 in0.0 mm
05:30 AM 61.5°F16.4°C 57.3°F14.1°C 86% 9.0 mph SSE14.5 kmh SSE 17.0 mph27.4 kmh 29.62 in1003.0 mb 0.00 in0.0 mm 0.00 in0.0 mm 0.00 in0.0 mm
05:40 AM 61.6°F16.4°C 57.7°F14.3°C 87% 9.0 mph SSE14.5 kmh SSE 17.0 mph27.4 kmh 29.62 in1003.0 mb 0.00 in0.0 mm 0.00 in0.0 mm 0.00 in0.0 mm
05:45 AM 61.6°F16.4°C 57.7°F14.3°C 87% 8.0 mph SSE12.9 kmh SSE 17.0 mph27.4 kmh 29.62 in1003.0 mb 0.00 in0.0 mm 0.00 in0.0 mm 0.00 in0.0 mm
05:50 AM 61.6°F16.4°C 57.7°F14.3°C 87% 8.0 mph SSE12.9 kmh SSE 17.0 mph27.4 kmh 29.62 in1003.0 mb 0.00 in0.0 mm 0.00 in0.0 mm 0.00 in0.0 mm
06:00 AM 61.7°F16.5°C 57.5°F14.2°C 86% 9.0 mph SSE14.5 kmh SSE 16.0 mph25.7 kmh 29.62 in1003.0 mb 0.00 in0.0 mm 0.00 in0.0 mm 0.00 in0.0 mm
06:10 AM 61.7°F16.5°C 57.8°F14.3°C 87% 9.0 mph SSE14.5 kmh SSE 16.0 mph25.7 kmh 29.62 in1003.0 mb 0.00 in0.0 mm 0.00 in0.0 mm 0.00 in0.0 mm
06:15 AM 61.6°F16.4°C 57.7°F14.3°C 87% 8.0 mph SE12.9 kmh SE 16.0 mph25.7 kmh 29.63 in1003.4 mb 0.00 in0.0 mm 0.00 in0.0 mm 0.00 in0.0 mm
06:20 AM 61.6°F16.4°C 57.7°F14.3°C 87% 9.0 mph SSE14.5 kmh SSE 17.0 mph27.4 kmh 29.63 in1003.4 mb 0.00 in0.0 mm 0.00 in0.0 mm 0.00 in0.0 mm
06:30 AM 61.7°F16.5°C 58.1°F14.5°C 88% 9.0 mph SSE14.5 kmh SSE 17.0 mph27.4 kmh 29.63 in1003.4 mb 0.00 in0.0 mm 0.00 in0.0 mm 0.00 in0.0 mm
06:40 AM 61.7°F16.5°C 58.1°F14.5°C 88% 9.0 mph SSE14.5 kmh SSE 17.0 mph27.4 kmh 29.63 in1003.4 mb 0.00 in0.0 mm 0.00 in0.0 mm 0.00 in0.0 mm
06:45 AM 61.8°F16.6°C 57.9°F14.4°C 87% 8.0 mph SSE12.9 kmh SSE 17.0 mph27.4 kmh 29.63 in1003.4 mb 0.00 in0.0 mm 0.00 in0.0 mm 0.00 in0.0 mm
06:50 AM 61.8°F16.6°C 57.9°F14.4°C 87% 9.0 mph SSE14.5 kmh SSE 17.0 mph27.4 kmh 29.63 in1003.4 mb 0.00 in0.0 mm 0.00 in0.0 mm 0.00 in0.0 mm
07:00 AM 62.0°F16.7°C 58.1°F14.5°C 87% 9.0 mph SSE14.5 kmh SSE 16.0 mph25.7 kmh 29.63 in1003.4 mb 0.00 in0.0 mm 0.00 in0.0 mm 0.00 in0.0 mm
07:10 AM 62.2°F16.8°C 58.3°F14.6°C 87% 10.0 mph SSE16.1 kmh SSE 19.0 mph30.6 kmh 29.62 in1003.0 mb 0.00 in0.0 mm 0.00 in0.0 mm 0.00 in0.0 mm
07:15 AM 62.3°F16.8°C 58.4°F14.7°C 87% 10.0 mph SE16.1 kmh SE 19.0 mph30.6 kmh 29.63 in1003.4 mb 0.00 in0.0 mm 0.00 in0.0 mm 0.00 in0.0 mm
07:20 AM 62.3°F16.8°C 58.4°F14.7°C 87% 10.0 mph SSE16.1 kmh SSE 19.0 mph30.6 kmh 29.63 in1003.4 mb 0.00 in0.0 mm 0.00 in0.0 mm 0.00 in0.0 mm
07:30 AM 62.5°F16.9°C 58.3°F14.6°C 86% 9.0 mph SE14.5 kmh SE 19.0 mph30.6 kmh 29.64 in1003.7 mb 0.00 in0.0 mm 0.00 in0.0 mm 0.00 in0.0 mm
07:40 AM 62.7°F17.1°C 58.8°F14.9°C 87% 9.0 mph SSE14.5 kmh SSE 17.0 mph27.4 kmh 29.64 in1003.7 mb 0.00 in0.0 mm 0.00 in0.0 mm 0.00 in0.0 mm
07:45 AM 62.7°F17.1°C 58.8°F14.9°C 87% 8.0 mph SSE12.9 kmh SSE 16.0 mph25.7 kmh 29.64 in1003.7 mb 0.00 in0.0 mm 0.00 in0.0 mm 0.00 in0.0 mm
07:50 AM 62.8°F17.1°C 58.9°F14.9°C 87% 8.0 mph SE12.9 kmh SE 16.0 mph25.7 kmh 29.64 in1003.7 mb 0.00 in0.0 mm 0.00 in0.0 mm 0.00 in0.0 mm
08:00 AM 62.8°F17.1°C 58.9°F14.9°C 87% 8.0 mph SE12.9 kmh SE 15.0 mph24.1 kmh 29.64 in1003.7 mb 0.00 in0.0 mm 0.00 in0.0 mm 0.00 in0.0 mm
08:10 AM 62.9°F17.2°C 59.0°F15.0°C 87% 7.0 mph SSE11.3 kmh SSE 14.0 mph22.5 kmh 29.64 in1003.7 mb 0.00 in0.0 mm 0.00 in0.0 mm 0.00 in0.0 mm
08:15 AM 63.0°F17.2°C 59.1°F15.1°C 87% 8.0 mph SSE12.9 kmh SSE 17.0 mph27.4 kmh 29.64 in1003.7 mb 0.00 in0.0 mm 0.00 in0.0 mm 0.00 in0.0 mm
08:20 AM 63.0°F17.2°C 58.7°F14.8°C 86% 8.0 mph SSE12.9 kmh SSE 17.0 mph27.4 kmh 29.64 in1003.7 mb 0.00 in0.0 mm 0.00 in0.0 mm 0.00 in0.0 mm
08:30 AM 63.0°F17.2°C 59.1°F15.1°C 87% 9.0 mph SSE14.5 kmh SSE 17.0 mph27.4 kmh 29.64 in1003.7 mb 0.00 in0.0 mm 0.00 in0.0 mm 0.00 in0.0 mm
08:40 AM 62.8°F17.1°C 58.9°F14.9°C 87% 10.0 mph SSE16.1 kmh SSE 19.0 mph30.6 kmh 29.64 in1003.7 mb 0.00 in0.0 mm 0.00 in0.0 mm 0.00 in0.0 mm
08:45 AM 62.5°F16.9°C 58.9°F14.9°C 88% 10.0 mph SE16.1 kmh SE 18.0 mph29.0 kmh 29.64 in1003.7 mb 0.00 in0.0 mm 0.00 in0.0 mm 0.00 in0.0 mm
08:50 AM 62.5°F16.9°C 58.9°F14.9°C 88% 9.0 mph SSE14.5 kmh SSE 19.0 mph30.6 kmh 29.64 in1003.7 mb 0.00 in0.0 mm 0.00 in0.0 mm 0.00 in0.0 mm
09:00 AM 62.6°F17.0°C 59.0°F15.0°C 88% 9.0 mph SSE14.5 kmh SSE 20.0 mph32.2 kmh 29.64 in1003.7 mb 0.00 in0.0 mm 0.00 in0.0 mm 0.00 in0.0 mm
09:10 AM 62.8°F17.1°C 59.2°F15.1°C 88% 9.0 mph SSE14.5 kmh SSE 20.0 mph32.2 kmh 29.64 in1003.7 mb 0.00 in0.0 mm 0.00 in0.0 mm 0.00 in0.0 mm
09:15 AM 62.9°F17.2°C 59.3°F15.2°C 88% 9.0 mph SE14.5 kmh SE 16.0 mph25.7 kmh 29.64 in1003.7 mb 0.00 in0.0 mm 0.00 in0.0 mm 0.00 in0.0 mm
09:20 AM 62.9°F17.2°C 59.3°F15.2°C 88% 9.0 mph SE14.5 kmh SE 18.0 mph29.0 kmh 29.64 in1003.7 mb 0.00 in0.0 mm 0.00 in0.0 mm 0.00 in0.0 mm
09:30 AM 63.1°F17.3°C 59.2°F15.1°C 87% 8.0 mph SE12.9 kmh SE 17.0 mph27.4 kmh 29.63 in1003.4 mb 0.00 in0.0 mm 0.00 in0.0 mm 0.00 in0.0 mm
09:40 AM 63.4°F17.4°C 59.1°F15.1°C 86% 8.0 mph SSE12.9 kmh SSE 17.0 mph27.4 kmh 29.63 in1003.4 mb 0.00 in0.0 mm 0.00 in0.0 mm 0.00 in0.0 mm
09:45 AM 63.5°F17.5°C 59.6°F15.3°C 87% 8.0 mph SE12.9 kmh SE 15.0 mph24.1 kmh 29.63 in1003.4 mb 0.00 in0.0 mm 0.00 in0.0 mm 0.00 in0.0 mm
09:50 AM 63.5°F17.5°C 59.6°F15.3°C 87% 8.0 mph SE12.9 kmh SE 15.0 mph24.1 kmh 29.63 in1003.4 mb 0.00 in0.0 mm 0.00 in0.0 mm 0.00 in0.0 mm
10:00 AM 63.6°F17.6°C 59.3°F15.2°C 86% 8.0 mph SSE12.9 kmh SSE 20.0 mph32.2 kmh 29.63 in1003.4 mb 0.00 in0.0 mm 0.00 in0.0 mm 0.00 in0.0 mm
10:10 AM 63.7°F17.6°C 59.4°F15.2°C 86% 9.0 mph SE14.5 kmh SE 20.0 mph32.2 kmh 29.62 in1003.0 mb 0.00 in0.0 mm 0.00 in0.0 mm 0.00 in0.0 mm
10:15 AM 63.8°F17.7°C 59.5°F15.3°C 86% 9.0 mph SE14.5 kmh SE 15.0 mph24.1 kmh 29.62 in1003.0 mb 0.00 in0.0 mm 0.00 in0.0 mm 0.00 in0.0 mm
10:20 AM 63.8°F17.7°C 59.2°F15.1°C 85% 8.0 mph SSE12.9 kmh SSE 15.0 mph24.1 kmh 29.62 in1003.0 mb 0.00 in0.0 mm 0.00 in0.0 mm 0.00 in0.0 mm
10:30 AM 64.0°F17.8°C 59.4°F15.2°C 85% 9.0 mph SE14.5 kmh SE 19.0 mph30.6 kmh 29.62 in1003.0 mb 0.00 in0.0 mm 0.00 in0.0 mm 0.00 in0.0 mm
10:40 AM 64.3°F17.9°C 59.7°F15.4°C 85% 9.0 mph SSE14.5 kmh SSE 19.0 mph30.6 kmh 29.62 in1003.0 mb 0.00 in0.0 mm 0.00 in0.0 mm 0.00 in0.0 mm
10:45 AM 64.3°F17.9°C 59.7°F15.4°C 85% 9.0 mph SE14.5 kmh SE 18.0 mph29.0 kmh 29.62 in1003.0 mb 0.00 in0.0 mm 0.00 in0.0 mm 0.00 in0.0 mm
10:50 AM 64.2°F17.9°C 59.6°F15.3°C 85% 9.0 mph SSE14.5 kmh SSE 19.0 mph30.6 kmh 29.62 in1003.0 mb 0.00 in0.0 mm 0.00 in0.0 mm 0.00 in0.0 mm
11:00 AM 64.0°F17.8°C 59.4°F15.2°C 85% 9.0 mph SSE14.5 kmh SSE 19.0 mph30.6 kmh 29.62 in1003.0 mb 0.00 in0.0 mm 0.00 in0.0 mm 0.00 in0.0 mm
11:10 AM 64.1°F17.8°C 59.5°F15.3°C 85% 9.0 mph SSE14.5 kmh SSE 16.0 mph25.7 kmh 29.63 in1003.4 mb 0.00 in0.0 mm 0.00 in0.0 mm 0.00 in0.0 mm
11:15 AM 64.1°F17.8°C 59.5°F15.3°C 85% 9.0 mph SSE14.5 kmh SSE 16.0 mph25.7 kmh 29.63 in1003.4 mb 0.00 in0.0 mm 0.00 in0.0 mm 0.00 in0.0 mm
11:20 AM 64.1°F17.8°C 59.5°F15.3°C 85% 9.0 mph SSE14.5 kmh SSE 16.0 mph25.7 kmh 29.62 in1003.0 mb 0.00 in0.0 mm 0.00 in0.0 mm 0.00 in0.0 mm
11:30 AM 64.2°F17.9°C 59.6°F15.3°C 85% 9.0 mph SSE14.5 kmh SSE 16.0 mph25.7 kmh 29.63 in1003.4 mb 0.00 in0.0 mm 0.00 in0.0 mm 0.00 in0.0 mm
11:40 AM 64.3°F17.9°C 59.4°F15.2°C 84% 8.0 mph SSE12.9 kmh SSE 16.0 mph25.7 kmh 29.62 in1003.0 mb 0.00 in0.0 mm 0.00 in0.0 mm 0.00 in0.0 mm
11:45 AM 64.4°F18.0°C 59.5°F15.3°C 84% 8.0 mph SSE12.9 kmh SSE 16.0 mph25.7 kmh 29.63 in1003.4 mb 0.00 in0.0 mm 0.00 in0.0 mm 0.00 in0.0 mm
11:50 AM 64.4°F18.0°C 59.8°F15.4°C 85% 10.0 mph SSE16.1 kmh SSE 17.0 mph27.4 kmh 29.63 in1003.4 mb 0.00 in0.0 mm 0.00 in0.0 mm 0.00 in0.0 mm
12:00 PM 64.6°F18.1°C 59.7°F15.4°C 84% 9.0 mph SSE14.5 kmh SSE 17.0 mph27.4 kmh 29.63 in1003.4 mb 0.00 in0.0 mm 0.00 in0.0 mm 0.00 in0.0 mm
12:10 PM 64.6°F18.1°C 59.7°F15.4°C 84% 10.0 mph SSE16.1 kmh SSE 16.0 mph25.7 kmh 29.63 in1003.4 mb 0.00 in0.0 mm 0.00 in0.0 mm 0.00 in0.0 mm
12:15 PM 64.5°F18.1°C 59.6°F15.3°C 84% 10.0 mph SSE16.1 kmh SSE 16.0 mph25.7 kmh 29.63 in1003.4 mb 0.00 in0.0 mm 0.00 in0.0 mm 0.00 in0.0 mm
12:20 PM 64.5°F18.1°C 59.6°F15.3°C 84% 10.0 mph SSE16.1 kmh SSE 17.0 mph27.4 kmh 29.63 in1003.4 mb 0.00 in0.0 mm 0.00 in0.0 mm 0.00 in0.0 mm
12:30 PM 64.5°F18.1°C 59.6°F15.3°C 84% 12.0 mph SSE19.3 kmh SSE 21.0 mph33.8 kmh 29.63 in1003.4 mb 0.00 in0.0 mm 0.00 in0.0 mm 0.00 in0.0 mm
12:40 PM 64.5°F18.1°C 59.9°F15.5°C 85% 12.0 mph SE19.3 kmh SE 21.0 mph33.8 kmh 29.64 in1003.7 mb 0.00 in0.0 mm 0.00 in0.0 mm 0.00 in0.0 mm
12:45 PM 64.4°F18.0°C 59.8°F15.4°C 85% 11.0 mph SSE17.7 kmh SSE 20.0 mph32.2 kmh 29.64 in1003.7 mb 0.00 in0.0 mm 0.00 in0.0 mm 0.00 in0.0 mm
12:50 PM 64.4°F18.0°C 59.8°F15.4°C 85% 11.0 mph SSE17.7 kmh SSE 20.0 mph32.2 kmh 29.64 in1003.7 mb 0.00 in0.0 mm 0.00 in0.0 mm 0.00 in0.0 mm
01:00 PM 64.4°F18.0°C 59.8°F15.4°C 85% 12.0 mph SSE19.3 kmh SSE 21.0 mph33.8 kmh 29.64 in1003.7 mb 0.00 in0.0 mm 0.00 in0.0 mm 0.00 in0.0 mm
01:10 PM 64.4°F18.0°C 59.8°F15.4°C 85% 9.0 mph SSE14.5 kmh SSE 21.0 mph33.8 kmh 29.64 in1003.7 mb 0.00 in0.0 mm 0.00 in0.0 mm 0.00 in0.0 mm
01:15 PM 64.2°F17.9°C 59.9°F15.5°C 86% 9.0 mph SSE14.5 kmh SSE 20.0 mph32.2 kmh 29.64 in1003.7 mb 0.00 in0.0 mm 0.00 in0.0 mm 0.00 in0.0 mm
01:20 PM 64.2°F17.9°C 59.9°F15.5°C 86% 10.0 mph SSE16.1 kmh SSE 20.0 mph32.2 kmh 29.64 in1003.7 mb 0.00 in0.0 mm 0.00 in0.0 mm 0.00 in0.0 mm
01:30 PM 64.2°F17.9°C 59.6°F15.3°C 85% 9.0 mph SE14.5 kmh SE 19.0 mph30.6 kmh 29.63 in1003.4 mb 0.00 in0.0 mm 0.00 in0.0 mm 0.00 in0.0 mm
01:40 PM 64.3°F17.9°C 60.0°F15.6°C 86% 8.0 mph SSE12.9 kmh SSE 17.0 mph27.4 kmh 29.64 in1003.7 mb 0.00 in0.0 mm 0.00 in0.0 mm 0.00 in0.0 mm
01:45 PM 64.4°F18.0°C 59.8°F15.4°C 85% 8.0 mph SSE12.9 kmh SSE 14.0 mph22.5 kmh 29.64 in1003.7 mb 0.00 in0.0 mm 0.00 in0.0 mm 0.00 in0.0 mm
01:50 PM 64.4°F18.0°C 59.8°F15.4°C 85% 8.0 mph SSE12.9 kmh SSE 17.0 mph27.4 kmh 29.64 in1003.7 mb 0.00 in0.0 mm 0.00 in0.0 mm 0.00 in0.0 mm
02:00 PM 64.4°F18.0°C 60.1°F15.6°C 86% 7.0 mph SSE11.3 kmh SSE 16.0 mph25.7 kmh 29.65 in1004.1 mb 0.00 in0.0 mm 0.00 in0.0 mm 0.00 in0.0 mm
02:10 PM 64.1°F17.8°C 59.8°F15.4°C 86% 8.0 mph SSE12.9 kmh SSE 16.0 mph25.7 kmh 29.65 in1004.1 mb 0.00 in0.0 mm 0.00 in0.0 mm 0.00 in0.0 mm
02:15 PM 64.0°F17.8°C 60.1°F15.6°C 87% 7.0 mph S11.3 kmh S 13.0 mph20.9 kmh 29.65 in1004.1 mb 0.00 in0.0 mm 0.00 in0.0 mm 0.00 in0.0 mm
02:20 PM 64.0°F17.8°C 60.1°F15.6°C 87% 6.0 mph SSE9.7 kmh SSE 14.0 mph22.5 kmh 29.65 in1004.1 mb 0.00 in0.0 mm 0.00 in0.0 mm 0.00 in0.0 mm
02:30 PM 63.8°F17.7°C 59.9°F15.5°C 87% 7.0 mph SSE11.3 kmh SSE 13.0 mph20.9 kmh 29.65 in1004.1 mb 0.00 in0.0 mm 0.00 in0.0 mm 0.00 in0.0 mm
02:40 PM 63.7°F17.6°C 59.8°F15.4°C 87% 7.0 mph SSE11.3 kmh SSE 14.0 mph22.5 kmh 29.65 in1004.1 mb 0.00 in0.0 mm 0.00 in0.0 mm 0.00 in0.0 mm
02:45 PM 63.6°F17.6°C 59.7°F15.4°C 87% 7.0 mph SSE11.3 kmh SSE 12.0 mph19.3 kmh 29.65 in1004.1 mb 0.00 in0.0 mm 0.00 in0.0 mm 0.00 in0.0 mm
02:50 PM 63.6°F17.6°C 59.7°F15.4°C 87% 8.0 mph SE12.9 kmh SE 14.0 mph22.5 kmh 29.65 in1004.1 mb 0.00 in0.0 mm 0.00 in0.0 mm 0.00 in0.0 mm
03:00 PM 63.7°F17.6°C 59.8°F15.4°C 87% 8.0 mph SSE12.9 kmh SSE 15.0 mph24.1 kmh 29.65 in1004.1 mb 0.00 in0.0 mm 0.00 in0.0 mm 0.00 in0.0 mm
03:10 PM 63.7°F17.6°C 59.4°F15.2°C 86% 9.0 mph SSE14.5 kmh SSE 15.0 mph24.1 kmh 29.65 in1004.1 mb 0.00 in0.0 mm 0.00 in0.0 mm 0.00 in0.0 mm
03:15 PM 63.8°F17.7°C 59.5°F15.3°C 86% 9.0 mph SSE14.5 kmh SSE 14.0 mph22.5 kmh 29.65 in1004.1 mb 0.00 in0.0 mm 0.00 in0.0 mm 0.00 in0.0 mm
03:20 PM 63.8°F17.7°C 59.5°F15.3°C 86% 8.0 mph SSE12.9 kmh SSE 14.0 mph22.5 kmh 29.66 in1004.4 mb 0.00 in0.0 mm 0.00 in0.0 mm 0.00 in0.0 mm
03:30 PM 63.8°F17.7°C 59.9°F15.5°C 87% 9.0 mph SSE14.5 kmh SSE 15.0 mph24.1 kmh 29.66 in1004.4 mb 0.00 in0.0 mm 0.00 in0.0 mm 0.00 in0.0 mm
03:40 PM 63.7°F17.6°C 59.4°F15.2°C 86% 10.0 mph SSE16.1 kmh SSE 16.0 mph25.7 kmh 29.66 in1004.4 mb 0.00 in0.0 mm 0.00 in0.0 mm 0.00 in0.0 mm
03:45 PM 63.6°F17.6°C 59.3°F15.2°C 86% 10.0 mph SSE16.1 kmh SSE 21.0 mph33.8 kmh 29.66 in1004.4 mb 0.01 in0.3 mm 0.12 in3.0 mm 0.01 in0.3 mm
03:50 PM 63.6°F17.6°C 59.3°F15.2°C 86% 11.0 mph SSE17.7 kmh SSE 21.0 mph33.8 kmh 29.67 in1004.7 mb 0.01 in0.3 mm 0.00 in0.0 mm 0.01 in0.3 mm
04:00 PM 63.5°F17.5°C 59.6°F15.3°C 87% 9.0 mph SSE14.5 kmh SSE 21.0 mph33.8 kmh 29.67 in1004.7 mb 0.01 in0.3 mm 0.00 in0.0 mm 0.01 in0.3 mm
04:10 PM 63.4°F17.4°C 59.5°F15.3°C 87% 9.0 mph SSE14.5 kmh SSE 18.0 mph29.0 kmh 29.67 in1004.7 mb 0.01 in0.3 mm 0.00 in0.0 mm 0.01 in0.3 mm
04:15 PM 63.3°F17.4°C 59.4°F15.2°C 87% 9.0 mph SSE14.5 kmh SSE 16.0 mph25.7 kmh 29.67 in1004.7 mb 0.01 in0.3 mm 0.00 in0.0 mm 0.01 in0.3 mm
04:20 PM 63.3°F17.4°C 59.0°F15.0°C 86% 9.0 mph SSE14.5 kmh SSE 16.0 mph25.7 kmh 29.67 in1004.7 mb 0.01 in0.3 mm 0.00 in0.0 mm 0.01 in0.3 mm
04:30 PM 63.4°F17.4°C 59.1°F15.1°C 86% 9.0 mph SSE14.5 kmh SSE 17.0 mph27.4 kmh 29.67 in1004.7 mb 0.02 in0.5 mm 0.06 in1.5 mm 0.02 in0.5 mm
04:40 PM 63.3°F17.4°C 59.0°F15.0°C 86% 11.0 mph SSE17.7 kmh SSE 22.0 mph35.4 kmh 29.67 in1004.7 mb 0.02 in0.5 mm 0.00 in0.0 mm 0.02 in0.5 mm
04:45 PM 63.0°F17.2°C 58.7°F14.8°C 86% 12.0 mph SSE19.3 kmh SSE 22.0 mph35.4 kmh 29.67 in1004.7 mb 0.02 in0.5 mm 0.00 in0.0 mm 0.02 in0.5 mm
04:50 PM 63.0°F17.2°C 58.7°F14.8°C 86% 11.0 mph SSE17.7 kmh SSE 22.0 mph35.4 kmh 29.67 in1004.7 mb 0.02 in0.5 mm 0.00 in0.0 mm 0.02 in0.5 mm
05:00 PM 63.0°F17.2°C 58.4°F14.7°C 85% 11.0 mph SSE17.7 kmh SSE 19.0 mph30.6 kmh 29.68 in1005.1 mb 0.02 in0.5 mm 0.00 in0.0 mm 0.02 in0.5 mm
05:10 PM 63.2°F17.3°C 58.3°F14.6°C 84% 10.0 mph SSE16.1 kmh SSE 20.0 mph32.2 kmh 29.68 in1005.1 mb 0.02 in0.5 mm 0.00 in0.0 mm 0.02 in0.5 mm
05:15 PM 63.5°F17.5°C 58.6°F14.8°C 84% 11.0 mph S17.7 kmh S 19.0 mph30.6 kmh 29.69 in1005.4 mb 0.02 in0.5 mm 0.00 in0.0 mm 0.02 in0.5 mm
05:20 PM 63.4°F17.4°C 58.8°F14.9°C 85% 10.0 mph SSW16.1 kmh SSW 20.0 mph32.2 kmh 29.69 in1005.4 mb 0.02 in0.5 mm 0.00 in0.0 mm 0.02 in0.5 mm
05:30 PM 62.1°F16.7°C 58.5°F14.7°C 88% 7.0 mph SW11.3 kmh SW 20.0 mph32.2 kmh 29.69 in1005.4 mb 0.02 in0.5 mm 0.00 in0.0 mm 0.03 in0.8 mm
05:40 PM 62.2°F16.8°C 58.6°F14.8°C 88% 7.0 mph S11.3 kmh S 18.0 mph29.0 kmh 29.69 in1005.4 mb 0.01 in0.3 mm 0.00 in0.0 mm 0.03 in0.8 mm
05:45 PM 61.4°F16.3°C 57.8°F14.3°C 88% 9.0 mph S14.5 kmh S 24.0 mph38.6 kmh 29.69 in1005.4 mb 0.02 in0.5 mm 0.12 in3.0 mm 0.05 in1.3 mm
05:50 PM 61.5°F16.4°C 58.5°F14.7°C 90% 10.0 mph S16.1 kmh S 24.0 mph38.6 kmh 29.69 in1005.4 mb 0.03 in0.8 mm 0.12 in3.0 mm 0.06 in1.5 mm
06:00 PM 60.9°F16.1°C 58.3°F14.6°C 91% 8.0 mph S12.9 kmh S 24.0 mph38.6 kmh 29.69 in1005.4 mb 0.03 in0.8 mm 0.00 in0.0 mm 0.06 in1.5 mm
06:10 PM 60.9°F16.1°C 58.3°F14.6°C 91% 7.0 mph SSE11.3 kmh SSE 15.0 mph24.1 kmh 29.68 in1005.1 mb 0.03 in0.8 mm 0.00 in0.0 mm 0.06 in1.5 mm
06:15 PM 60.9°F16.1°C 58.3°F14.6°C 91% 6.0 mph S9.7 kmh S 12.0 mph19.3 kmh 29.68 in1005.1 mb 0.03 in0.8 mm 0.00 in0.0 mm 0.06 in1.5 mm
06:20 PM 60.8°F16.0°C 58.2°F14.6°C 91% 6.0 mph SSE9.7 kmh SSE 14.0 mph22.5 kmh 29.69 in1005.4 mb 0.03 in0.8 mm 0.00 in0.0 mm 0.06 in1.5 mm
06:30 PM 60.7°F15.9°C 58.1°F14.5°C 91% 6.0 mph S9.7 kmh S 15.0 mph24.1 kmh 29.69 in1005.4 mb 0.02 in0.5 mm 0.00 in0.0 mm 0.06 in1.5 mm
06:40 PM 60.8°F16.0°C 58.2°F14.6°C 91% 6.0 mph SW9.7 kmh SW 15.0 mph24.1 kmh 29.69 in1005.4 mb 0.02 in0.5 mm 0.00 in0.0 mm 0.06 in1.5 mm
06:45 PM 60.6°F15.9°C 58.0°F14.4°C 91% 5.0 mph SW8.0 kmh SW 11.0 mph17.7 kmh 29.69 in1005.4 mb 0.00 in0.0 mm 0.00 in0.0 mm 0.06 in1.5 mm
06:50 PM 60.6°F15.9°C 57.3°F14.1°C 89% 4.0 mph SW6.4 kmh SW 12.0 mph19.3 kmh 29.69 in1005.4 mb 0.00 in0.0 mm 0.00 in0.0 mm 0.06 in1.5 mm
07:00 PM 60.4°F15.8°C 57.5°F14.2°C 90% 3.0 mph SW4.8 kmh SW 11.0 mph17.7 kmh 29.70 in1005.8 mb 0.00 in0.0 mm 0.00 in0.0 mm 0.06 in1.5 mm
07:10 PM 60.4°F15.8°C 57.5°F14.2°C 90% 4.0 mph SW6.4 kmh SW 10.0 mph16.1 kmh 29.71 in1006.1 mb 0.00 in0.0 mm 0.00 in0.0 mm 0.06 in1.5 mm
07:15 PM 60.5°F15.8°C 57.6°F14.2°C 90% 5.0 mph SW8.0 kmh SW 13.0 mph20.9 kmh 29.71 in1006.1 mb 0.00 in0.0 mm 0.00 in0.0 mm 0.06 in1.5 mm
07:20 PM 60.4°F15.8°C 57.1°F13.9°C 89% 5.0 mph SW8.0 kmh SW 13.0 mph20.9 kmh 29.71 in1006.1 mb 0.00 in0.0 mm 0.00 in0.0 mm 0.06 in1.5 mm
07:30 PM 60.4°F15.8°C 57.1°F13.9°C 89% 5.0 mph SW8.0 kmh SW 13.0 mph20.9 kmh 29.71 in1006.1 mb 0.00 in0.0 mm 0.00 in0.0 mm 0.06 in1.5 mm
07:40 PM 60.4°F15.8°C 57.1°F13.9°C 89% 5.0 mph SW8.0 kmh SW 12.0 mph19.3 kmh 29.71 in1006.1 mb 0.00 in0.0 mm 0.00 in0.0 mm 0.06 in1.5 mm
07:45 PM 60.5°F15.8°C 57.6°F14.2°C 90% 4.0 mph S6.4 kmh S 11.0 mph17.7 kmh 29.71 in1006.1 mb 0.00 in0.0 mm 0.00 in0.0 mm 0.06 in1.5 mm
07:50 PM 60.5°F15.8°C 57.2°F14.0°C 89% 4.0 mph S6.4 kmh S 12.0 mph19.3 kmh 29.71 in1006.1 mb 0.00 in0.0 mm 0.00 in0.0 mm 0.06 in1.5 mm
08:00 PM 60.3°F15.7°C 57.4°F14.1°C 90% 4.0 mph SSW6.4 kmh SSW 10.0 mph16.1 kmh 29.71 in1006.1 mb 0.00 in0.0 mm 0.00 in0.0 mm 0.06 in1.5 mm
08:10 PM 60.1°F15.6°C 56.5°F13.6°C 88% 4.0 mph SW6.4 kmh SW 10.0 mph16.1 kmh 29.72 in1006.4 mb 0.00 in0.0 mm 0.00 in0.0 mm 0.06 in1.5 mm
08:15 PM 60.0°F15.6°C 56.4°F13.6°C 88% 4.0 mph SW6.4 kmh SW 10.0 mph16.1 kmh 29.72 in1006.4 mb 0.00 in0.0 mm 0.00 in0.0 mm 0.06 in1.5 mm
08:20 PM 60.0°F15.6°C 56.1°F13.4°C 87% 5.0 mph SSW8.0 kmh SSW 11.0 mph17.7 kmh 29.72 in1006.4 mb 0.00 in0.0 mm 0.00 in0.0 mm 0.06 in1.5 mm
08:30 PM 60.1°F15.6°C 56.5°F13.6°C 88% 6.0 mph SW9.7 kmh SW 12.0 mph19.3 kmh 29.73 in1006.8 mb 0.00 in0.0 mm 0.00 in0.0 mm 0.06 in1.5 mm
08:40 PM 60.1°F15.6°C 56.5°F13.6°C 88% 5.0 mph SW8.0 kmh SW 13.0 mph20.9 kmh 29.73 in1006.8 mb 0.00 in0.0 mm 0.00 in0.0 mm 0.06 in1.5 mm
08:45 PM 60.1°F15.6°C 56.5°F13.6°C 88% 5.0 mph SW8.0 kmh SW 14.0 mph22.5 kmh 29.73 in1006.8 mb 0.00 in0.0 mm 0.00 in0.0 mm 0.06 in1.5 mm
08:50 PM 60.1°F15.6°C 56.5°F13.6°C 88% 5.0 mph SW8.0 kmh SW 14.0 mph22.5 kmh 29.74 in1007.1 mb 0.00 in0.0 mm 0.00 in0.0 mm 0.06 in1.5 mm
09:00 PM 60.1°F15.6°C 56.8°F13.8°C 89% 6.0 mph SW9.7 kmh SW 14.0 mph22.5 kmh 29.74 in1007.1 mb 0.00 in0.0 mm 0.00 in0.0 mm 0.06 in1.5 mm
09:10 PM 60.2°F15.7°C 56.6°F13.7°C 88% 6.0 mph SW9.7 kmh SW 14.0 mph22.5 kmh 29.74 in1007.1 mb 0.00 in0.0 mm 0.00 in0.0 mm 0.06 in1.5 mm
09:15 PM 60.2°F15.7°C 56.6°F13.7°C 88% 6.0 mph SW9.7 kmh SW 15.0 mph24.1 kmh 29.74 in1007.1 mb 0.00 in0.0 mm 0.00 in0.0 mm 0.06 in1.5 mm
09:20 PM 60.2°F15.7°C 56.6°F13.7°C 88% 6.0 mph SW9.7 kmh SW 15.0 mph24.1 kmh 29.74 in1007.1 mb 0.00 in0.0 mm 0.00 in0.0 mm 0.06 in1.5 mm
09:30 PM 60.3°F15.7°C 56.7°F13.7°C 88% 6.0 mph SW9.7 kmh SW 15.0 mph24.1 kmh 29.75 in1007.5 mb 0.00 in0.0 mm 0.00 in0.0 mm 0.06 in1.5 mm
09:40 PM 60.2°F15.7°C 56.6°F13.7°C 88% 5.0 mph SW8.0 kmh SW 13.0 mph20.9 kmh 29.75 in1007.5 mb 0.00 in0.0 mm 0.00 in0.0 mm 0.06 in1.5 mm
09:45 PM 60.1°F15.6°C 56.8°F13.8°C 89% 5.0 mph SSW8.0 kmh SSW 17.0 mph27.4 kmh 29.75 in1007.5 mb 0.00 in0.0 mm 0.00 in0.0 mm 0.06 in1.5 mm
09:50 PM 60.2°F15.7°C 56.6°F13.7°C 88% 6.0 mph SW9.7 kmh SW 16.0 mph25.7 kmh 29.75 in1007.5 mb 0.00 in0.0 mm 0.00 in0.0 mm 0.06 in1.5 mm
10:00 PM 60.3°F15.7°C 56.7°F13.7°C 88% 7.0 mph SW11.3 kmh SW 16.0 mph25.7 kmh 29.75 in1007.5 mb 0.00 in0.0 mm 0.00 in0.0 mm 0.06 in1.5 mm
10:10 PM 60.3°F15.7°C 56.7°F13.7°C 88% 7.0 mph SSW11.3 kmh SSW 15.0 mph24.1 kmh 29.76 in1007.8 mb 0.00 in0.0 mm 0.00 in0.0 mm 0.06 in1.5 mm
10:15 PM 60.3°F15.7°C 56.7°F13.7°C 88% 7.0 mph SW11.3 kmh SW 16.0 mph25.7 kmh 29.76 in1007.8 mb 0.00 in0.0 mm 0.00 in0.0 mm 0.06 in1.5 mm
10:20 PM 60.3°F15.7°C 56.7°F13.7°C 88% 7.0 mph SW11.3 kmh SW 16.0 mph25.7 kmh 29.76 in1007.8 mb 0.00 in0.0 mm 0.00 in0.0 mm 0.06 in1.5 mm
10:30 PM 60.3°F15.7°C 57.0°F13.9°C 89% 7.0 mph SSW11.3 kmh SSW 17.0 mph27.4 kmh 29.76 in1007.8 mb 0.00 in0.0 mm 0.00 in0.0 mm 0.06 in1.5 mm
10:40 PM 60.2°F15.7°C 56.9°F13.8°C 89% 7.0 mph SW11.3 kmh SW 17.0 mph27.4 kmh 29.76 in1007.8 mb 0.00 in0.0 mm 0.00 in0.0 mm 0.06 in1.5 mm
10:50 PM 60.2°F15.7°C 56.9°F13.8°C 89% 7.0 mph SW11.3 kmh SW 16.0 mph25.7 kmh 29.77 in1008.1 mb 0.00 in0.0 mm 0.00 in0.0 mm 0.06 in1.5 mm
11:00 PM 60.2°F15.7°C 56.9°F13.8°C 89% 9.0 mph SW14.5 kmh SW 17.0 mph27.4 kmh 29.77 in1008.1 mb 0.00 in0.0 mm 0.00 in0.0 mm 0.06 in1.5 mm
11:10 PM 60.1°F15.6°C 56.8°F13.8°C 89% 9.0 mph SW14.5 kmh SW 22.0 mph35.4 kmh 29.77 in1008.1 mb 0.00 in0.0 mm 0.00 in0.0 mm 0.04 in1.0 mm
11:20 PM 60.1°F15.6°C 56.8°F13.8°C 89% 8.0 mph SW12.9 kmh SW 22.0 mph35.4 kmh 29.77 in1008.1 mb 0.00 in0.0 mm 0.00 in0.0 mm 0.04 in1.0 mm
11:30 PM 60.1°F15.6°C 56.5°F13.6°C 88% 8.0 mph SW12.9 kmh SW 19.0 mph30.6 kmh 29.77 in1008.1 mb 0.00 in0.0 mm 0.00 in0.0 mm 0.04 in1.0 mm
11:40 PM 60.0°F15.6°C 56.4°F13.6°C 88% 8.0 mph S12.9 kmh S 19.0 mph30.6 kmh 29.77 in1008.1 mb 0.00 in0.0 mm 0.00 in0.0 mm 0.04 in1.0 mm
11:50 PM 60.0°F15.6°C 56.4°F13.6°C 88% 9.0 mph SW14.5 kmh SW 19.0 mph30.6 kmh 29.78 in1008.5 mb 0.00 in0.0 mm 0.00 in0.0 mm 0.04 in1.0 mm